Allegheny County Airport Pittsburgh US
ICAO: KAGC
IATA: AGC
Category: Medium
Scheduled Services: No

Elevation: 1252 ft
TransAlt. 18000 ft.

Airport Communications:
PITTSBURGH APP/DEP:119.35
ATIS:120.55
GND:121.7
ALTOONA RDO:122.2
TWR:121.1
UNICOM:122.95

KAGC Zoom In..

If you have problems with the map follow the link
https://www.worldairports.se/pages/airport.php?
ICAO=KAGC

Runways:

(A) RW 10 length 6501 ft width 150 ft
ILS 109.10 / hdg 99

(B) RW 13 length 3825 ft width 100 ft
---- / hdg 129

(C) RW 28 length 6501 ft width 150 ft
ILS 109.10 / hdg 279

(D) RW 31 length 3825 ft width 100 ft
---- / hdg 309

Location; KAGC
Day. 13 / Time. 11.53 Zulu
* Altimeter: 30.18
* Temperature: -01° c. -30.2°f.
* Wind from: 150° Speed 05 kn.
Dewpoint: -08° c.
Visibility: 10 Statute Miles.
Clouds: Broken 7000 ft.

KAGC 131153Z 15005KT 10SM BKN070 M01/M08 A3018 RMK AO2 SLP239 T10061078 10000 21011 55009


Wind From 150°
Speed 05 kn.

 
 
jpsmedia worldairports.se 2019   terms of use